Wetterdaten: Woche 15.10.12 - 21.10.12 (KW42)
Datum Zeit Temperatur Luftfeuchte Luftdruck Niederschlag Windrichtung Sonnenschein Solar Wind
15.10.2012 00:00 7,5 C 90 % 998,2 hPa 0,0 l/m N 0,00 h 0 W/m 2,7 km/h (1 Bft)
15.10.2012 01:00 7,6 C 93 % 998,0 hPa 0,2 l/m SW 0,00 h 0 W/m 3,9 km/h (1 Bft)
15.10.2012 02:00 8,5 C 94 % 998,5 hPa 0,8 l/m SW 0,00 h 0 W/m 14,8 km/h (3 Bft)
15.10.2012 03:00 8,8 C 94 % 998,9 hPa 0,8 l/m W-SW 0,00 h 0 W/m 11,7 km/h (2 Bft)
15.10.2012 04:00 8,6 C 95 % 999,6 hPa 1,2 l/m W-SW 0,00 h 0 W/m 11,6 km/h (2 Bft)
15.10.2012 05:00 8,2 C 95 % 1000,3 hPa 0,8 l/m SW 0,00 h 0 W/m 11,8 km/h (2 Bft)
15.10.2012 06:00 7,8 C 96 % 1001,1 hPa 0,4 l/m W-SW 0,00 h 0 W/m 12,4 km/h (3 Bft)
15.10.2012 07:00 7,0 C 95 % 1002,6 hPa 1,0 l/m NW 0,00 h 0 W/m 16,0 km/h (3 Bft)
15.10.2012 08:00 5,5 C 94 % 1004,6 hPa 0,4 l/m W-NW 0,00 h 11 W/m 9,3 km/h (2 Bft)
15.10.2012 09:00 5,2 C 94 % 1006,1 hPa 0,6 l/m W-SW 0,00 h 30 W/m 9,9 km/h (2 Bft)
15.10.2012 10:00 5,2 C 94 % 1006,9 hPa 0,0 l/m W-SW 0,00 h 64 W/m 14,5 km/h (3 Bft)
15.10.2012 11:00 5,7 C 93 % 1007,7 hPa 0,0 l/m SW 0,00 h 93 W/m 14,0 km/h (3 Bft)
15.10.2012 12:00 6,1 C 92 % 1008,3 hPa 0,0 l/m SW 0,00 h 112 W/m 18,1 km/h (3 Bft)
15.10.2012 13:00 6,4 C 89 % 1008,6 hPa 0,0 l/m W-SW 0,00 h 133 W/m 16,5 km/h (3 Bft)
15.10.2012 14:00 6,8 C 88 % 1008,7 hPa 0,0 l/m SW 0,00 h 167 W/m 18,1 km/h (3 Bft)
15.10.2012 15:00 7,0 C 84 % 1009,1 hPa 0,0 l/m W-SW 0,00 h 131 W/m 20,0 km/h (4 Bft)
15.10.2012 16:00 6,8 C 84 % 1009,7 hPa 0,0 l/m W-SW 0,00 h 52 W/m 16,5 km/h (3 Bft)
15.10.2012 17:00 6,6 C 86 % 1010,3 hPa 0,0 l/m W-SW 0,00 h 22 W/m 13,2 km/h (3 Bft)
15.10.2012 18:00 6,3 C 85 % 1010,8 hPa 0,0 l/m W-SW 0,00 h 8 W/m 9,5 km/h (2 Bft)
15.10.2012 19:00 6,2 C 87 % 1011,2 hPa 0,0 l/m SW 0,00 h 0 W/m 4,7 km/h (1 Bft)
15.10.2012 20:00 6,0 C 89 % 1011,9 hPa 0,0 l/m SW 0,00 h 0 W/m 4,4 km/h (1 Bft)
15.10.2012 21:00 5,7 C 90 % 1012,1 hPa 0,0 l/m SW 0,00 h 0 W/m 4,4 km/h (1 Bft)
15.10.2012 22:00 5,1 C 91 % 1012,6 hPa 0,0 l/m N 0,00 h 0 W/m 2,4 km/h (1 Bft)
15.10.2012 23:00 4,9 C 92 % 1012,6 hPa 0,0 l/m N 0,00 h 0 W/m 0,7 km/h (0 Bft)
16.10.2012 00:00 4,8 C 93 % 1012,6 hPa 0,0 l/m N 0,00 h 0 W/m 1,2 km/h (1 Bft)
16.10.2012 01:00 4,5 C 93 % 1012,9 hPa 0,0 l/m N 0,00 h 0 W/m 0,3 km/h (0 Bft)
16.10.2012 02:00 4,2 C 94 % 1012,9 hPa 0,0 l/m N 0,00 h 0 W/m 0,0 km/h (0 Bft)
16.10.2012 03:00 3,9 C 94 % 1012,8 hPa 0,0 l/m N 0,00 h 0 W/m 0,1 km/h (0 Bft)
16.10.2012 04:00 3,5 C 94 % 1012,3 hPa 0,0 l/m N 0,00 h 0 W/m 1,5 km/h (1 Bft)
16.10.2012 05:00 3,0 C 95 % 1012,2 hPa 0,0 l/m N 0,00 h 0 W/m 0,5 km/h (0 Bft)
16.10.2012 06:00 2,8 C 95 % 1012,3 hPa 0,0 l/m N 0,00 h 0 W/m 0,4 km/h (0 Bft)
16.10.2012 07:00 2,7 C 96 % 1012,3 hPa 0,0 l/m N 0,00 h 6 W/m 0,5 km/h (0 Bft)
16.10.2012 08:00 2,8 C 97 % 1012,6 hPa 0,0 l/m N 0,00 h 30 W/m 1,7 km/h (1 Bft)
16.10.2012 09:00 3,3 C 98 % 1012,9 hPa 0,0 l/m SW 0,00 h 74 W/m 2,4 km/h (1 Bft)
16.10.2012 10:00 4,1 C 98 % 1012,8 hPa 0,0 l/m SW 0,33 h 245 W/m 4,4 km/h (1 Bft)
16.10.2012 11:00 6,7 C 94 % 1012,9 hPa 0,0 l/m W-SW 0,75 h 402 W/m 12,5 km/h (3 Bft)
16.10.2012 12:00 9,1 C 79 % 1013,3 hPa 0,0 l/m SW 0,67 h 473 W/m 17,6 km/h (3 Bft)
16.10.2012 13:00 10,3 C 67 % 1012,6 hPa 0,0 l/m SW 1,00 h 562 W/m 19,4 km/h (3 Bft)
16.10.2012 14:00 10,5 C 68 % 1012,1 hPa 0,0 l/m SW 0,83 h 450 W/m 17,3 km/h (3 Bft)
16.10.2012 15:00 10,7 C 66 % 1011,8 hPa 0,0 l/m SW 0,58 h 268 W/m 16,2 km/h (3 Bft)
16.10.2012 16:00 10,2 C 70 % 1012,0 hPa 0,0 l/m SW 0,08 h 96 W/m 14,8 km/h (3 Bft)
16.10.2012 17:00 9,6 C 73 % 1012,2 hPa 0,0 l/m W-SW 0,00 h 34 W/m 13,0 km/h (3 Bft)
16.10.2012 18:00 9,0 C 80 % 1012,4 hPa 0,2 l/m SW 0,00 h 12 W/m 10,2 km/h (2 Bft)
16.10.2012 19:00 8,2 C 86 % 1013,2 hPa 0,0 l/m W-SW 0,00 h 0 W/m 6,8 km/h (2 Bft)
16.10.2012 20:00 7,7 C 88 % 1013,3 hPa 0,0 l/m N 0,00 h 0 W/m 2,4 km/h (1 Bft)
16.10.2012 21:00 7,3 C 89 % 1013,7 hPa 0,0 l/m N 0,00 h 0 W/m 1,5 km/h (1 Bft)
16.10.2012 22:00 7,1 C 91 % 1014,0 hPa 0,0 l/m N 0,00 h 0 W/m 1,7 km/h (1 Bft)
16.10.2012 23:00 7,2 C 93 % 1014,0 hPa 0,2 l/m N 0,00 h 0 W/m 1,2 km/h (1 Bft)
17.10.2012 00:00 7,2 C 94 % 1013,8 hPa 0,0 l/m W-SW 0,00 h 0 W/m 3,5 km/h (1 Bft)
17.10.2012 01:00 7,2 C 94 % 1013,8 hPa 0,0 l/m N 0,00 h 0 W/m 1,6 km/h (1 Bft)
17.10.2012 02:00 7,0 C 94 % 1014,0 hPa 0,0 l/m N 0,00 h 0 W/m 1,7 km/h (1 Bft)
17.10.2012 03:00 6,9 C 95 % 1013,9 hPa 0,0 l/m N 0,00 h 0 W/m 0,0 km/h (0 Bft)
17.10.2012 04:00 6,6 C 95 % 1013,8 hPa 0,0 l/m N 0,00 h 0 W/m 0,1 km/h (0 Bft)
17.10.2012 05:00 6,4 C 95 % 1013,5 hPa 0,0 l/m N 0,00 h 0 W/m 0,1 km/h (0 Bft)
17.10.2012 06:00 6,2 C 96 % 1013,4 hPa 0,0 l/m N 0,00 h 0 W/m 1,5 km/h (1 Bft)
17.10.2012 07:00 6,4 C 96 % 1012,9 hPa 0,0 l/m NW 0,00 h 5 W/m 2,4 km/h (1 Bft)
17.10.2012 08:00 6,6 C 96 % 1013,0 hPa 0,0 l/m N 0,17 h 36 W/m 1,5 km/h (1 Bft)
17.10.2012 09:00 7,6 C 94 % 1013,2 hPa 0,0 l/m N 0,08 h 85 W/m 1,3 km/h (1 Bft)
17.10.2012 10:00 9,6 C 87 % 1013,2 hPa 0,0 l/m NW 1,00 h 319 W/m 3,2 km/h (1 Bft)
17.10.2012 11:00 13,4 C 69 % 1013,1 hPa 0,0 l/m NW 0,67 h 359 W/m 3,9 km/h (1 Bft)
17.10.2012 12:00 15,2 C 63 % 1013,7 hPa 0,0 l/m W-NW 0,58 h 349 W/m 12,2 km/h (2 Bft)
17.10.2012 13:00 15,9 C 60 % 1013,7 hPa 0,0 l/m W-SW 1,00 h 504 W/m 12,1 km/h (2 Bft)
17.10.2012 14:00 16,9 C 57 % 1013,2 hPa 0,0 l/m SW 0,75 h 338 W/m 12,5 km/h (3 Bft)
17.10.2012 15:00 16,5 C 62 % 1013,1 hPa 0,0 l/m SW 0,08 h 203 W/m 10,3 km/h (2 Bft)
17.10.2012 16:00 16,1 C 67 % 1012,7 hPa 0,0 l/m S-SW 0,58 h 174 W/m 8,6 km/h (2 Bft)
17.10.2012 17:00 15,0 C 74 % 1012,5 hPa 0,0 l/m S-SW 0,08 h 63 W/m 2,3 km/h (1 Bft)
17.10.2012 18:00 13,9 C 80 % 1012,3 hPa 0,0 l/m N 0,00 h 11 W/m 0,7 km/h (0 Bft)
17.10.2012 19:00 12,0 C 83 % 1012,3 hPa 0,0 l/m N 0,00 h 0 W/m 0,9 km/h (0 Bft)
17.10.2012 20:00 10,4 C 86 % 1012,6 hPa 0,0 l/m S-SW 0,00 h 0 W/m 2,7 km/h (1 Bft)
17.10.2012 21:00 9,5 C 90 % 1012,7 hPa 0,0 l/m W-NW 0,00 h 0 W/m 2,1 km/h (1 Bft)
17.10.2012 22:00 9,1 C 92 % 1012,6 hPa 0,0 l/m N 0,00 h 0 W/m 2,3 km/h (1 Bft)
17.10.2012 23:00 8,7 C 93 % 1012,4 hPa 0,0 l/m W-NW 0,00 h 0 W/m 2,8 km/h (1 Bft)
18.10.2012 00:00 8,5 C 93 % 1012,3 hPa 0,0 l/m W-NW 0,00 h 0 W/m 3,2 km/h (1 Bft)
18.10.2012 01:00 8,3 C 93 % 1012,4 hPa 0,0 l/m N 0,00 h 0 W/m 2,4 km/h (1 Bft)
18.10.2012 02:00 7,6 C 92 % 1012,6 hPa 0,0 l/m N 0,00 h 0 W/m 0,7 km/h (0 Bft)
18.10.2012 03:00 6,8 C 92 % 1012,5 hPa 0,0 l/m N 0,00 h 0 W/m 0,4 km/h (0 Bft)
18.10.2012 04:00 6,3 C 93 % 1012,4 hPa 0,0 l/m NW 0,00 h 0 W/m 3,2 km/h (1 Bft)
18.10.2012 05:00 6,6 C 95 % 1012,3 hPa 0,0 l/m N-NW 0,00 h 0 W/m 6,8 km/h (2 Bft)
18.10.2012 06:00 6,4 C 95 % 1012,0 hPa 0,0 l/m N-NW 0,00 h 0 W/m 3,7 km/h (1 Bft)
18.10.2012 07:00 6,2 C 96 % 1011,9 hPa 0,0 l/m N-NW 0,00 h 7 W/m 3,5 km/h (1 Bft)
18.10.2012 08:00 6,2 C 96 % 1012,3 hPa 0,0 l/m N-NW 0,00 h 28 W/m 6,0 km/h (2 Bft)
18.10.2012 09:00 7,0 C 97 % 1012,6 hPa 0,0 l/m N-NW 0,00 h 92 W/m 5,5 km/h (1 Bft)
18.10.2012 10:00 8,9 C 94 % 1012,5 hPa 0,0 l/m N-NW 0,58 h 273 W/m 6,7 km/h (2 Bft)
18.10.2012 11:00 12,5 C 85 % 1012,6 hPa 0,0 l/m N-NW 0,67 h 302 W/m 4,3 km/h (1 Bft)
18.10.2012 12:00 15,7 C 74 % 1012,7 hPa 0,0 l/m N 0,67 h 474 W/m 4,4 km/h (1 Bft)
18.10.2012 13:00 18,6 C 62 % 1012,6 hPa 0,0 l/m N 1,00 h 558 W/m 5,8 km/h (1 Bft)
18.10.2012 14:00 19,8 C 59 % 1012,2 hPa 0,0 l/m W-NW 0,92 h 441 W/m 5,1 km/h (1 Bft)
18.10.2012 15:00 20,7 C 53 % 1012,1 hPa 0,0 l/m W-NW 0,92 h 393 W/m 5,7 km/h (1 Bft)
18.10.2012 16:00 19,7 C 60 % 1012,4 hPa 0,0 l/m W-NW 0,92 h 219 W/m 5,1 km/h (1 Bft)
18.10.2012 17:00 17,6 C 76 % 1012,7 hPa 0,0 l/m N 0,58 h 92 W/m 1,1 km/h (0 Bft)
18.10.2012 18:00 16,2 C 78 % 1013,1 hPa 0,0 l/m N 0,00 h 9 W/m 0,7 km/h (0 Bft)
18.10.2012 19:00 13,8 C 83 % 1013,8 hPa 0,0 l/m N 0,00 h 0 W/m 0,0 km/h (0 Bft)
18.10.2012 20:00 12,1 C 88 % 1014,0 hPa 0,0 l/m N 0,00 h 0 W/m 1,2 km/h (1 Bft)
18.10.2012 21:00 11,1 C 90 % 1014,1 hPa 0,0 l/m N 0,00 h 0 W/m 1,3 km/h (1 Bft)
18.10.2012 22:00 10,4 C 92 % 1014,3 hPa 0,0 l/m W-NW 0,00 h 0 W/m 4,5 km/h (1 Bft)
18.10.2012 23:00 10,6 C 95 % 1014,4 hPa 0,0 l/m W-NW 0,00 h 0 W/m 5,9 km/h (2 Bft)
19.10.2012 00:00 10,0 C 94 % 1014,4 hPa 0,0 l/m N 0,00 h 0 W/m 1,3 km/h (1 Bft)
19.10.2012 01:00 9,1 C 94 % 1014,4 hPa 0,0 l/m N 0,00 h 0 W/m 2,3 km/h (1 Bft)
19.10.2012 02:00 8,4 C 94 % 1014,1 hPa 0,0 l/m W-NW 0,00 h 0 W/m 2,1 km/h (1 Bft)
19.10.2012 03:00 8,2 C 95 % 1013,7 hPa 0,0 l/m W-NW 0,00 h 0 W/m 6,1 km/h (2 Bft)
19.10.2012 04:00 8,3 C 96 % 1013,7 hPa 0,0 l/m W-NW 0,00 h 0 W/m 4,7 km/h (1 Bft)
19.10.2012 05:00 7,6 C 96 % 1013,7 hPa 0,0 l/m W-NW 0,00 h 0 W/m 4,8 km/h (1 Bft)
19.10.2012 06:00 7,0 C 96 % 1013,6 hPa 0,0 l/m W-NW 0,00 h 0 W/m 4,4 km/h (1 Bft)
19.10.2012 07:00 6,0 C 95 % 1013,6 hPa 0,0 l/m W-NW 0,00 h 6 W/m 5,6 km/h (1 Bft)
19.10.2012 08:00 5,5 C 96 % 1014,0 hPa 0,2 l/m NW 0,00 h 22 W/m 8,3 km/h (2 Bft)
19.10.2012 09:00 6,2 C 97 % 1014,4 hPa 0,0 l/m NW 0,92 h 179 W/m 6,5 km/h (2 Bft)
19.10.2012 10:00 7,9 C 98 % 1014,5 hPa 0,0 l/m NW 1,00 h 333 W/m 7,5 km/h (2 Bft)
19.10.2012 11:00 11,0 C 94 % 1014,1 hPa 0,0 l/m NW 0,92 h 446 W/m 6,8 km/h (2 Bft)
19.10.2012 12:00 14,9 C 80 % 1013,6 hPa 0,0 l/m NW 1,00 h 495 W/m 5,2 km/h (1 Bft)
19.10.2012 13:00 17,0 C 78 % 1013,2 hPa 0,0 l/m NW 0,50 h 343 W/m 5,7 km/h (1 Bft)
19.10.2012 14:00 18,9 C 73 % 1012,6 hPa 0,0 l/m N-NW 1,00 h 473 W/m 7,4 km/h (2 Bft)
19.10.2012 15:00 19,6 C 70 % 1012,3 hPa 0,0 l/m N 1,00 h 415 W/m 5,9 km/h (2 Bft)
19.10.2012 16:00 19,3 C 74 % 1012,3 hPa 0,0 l/m N-NO 1,00 h 292 W/m 7,1 km/h (2 Bft)
19.10.2012 17:00 18,8 C 74 % 1012,4 hPa 0,0 l/m N-NO 0,58 h 95 W/m 5,8 km/h (1 Bft)
19.10.2012 18:00 16,7 C 76 % 1013,1 hPa 0,0 l/m N-NO 0,00 h 9 W/m 3,1 km/h (1 Bft)
19.10.2012 19:00 14,2 C 83 % 1014,2 hPa 0,0 l/m N-NO 0,00 h 0 W/m 3,6 km/h (1 Bft)
19.10.2012 20:00 12,6 C 87 % 1014,9 hPa 0,0 l/m N-NO 0,00 h 0 W/m 4,1 km/h (1 Bft)
19.10.2012 21:00 11,4 C 87 % 1015,6 hPa 0,0 l/m N 0,00 h 0 W/m 0,9 km/h (0 Bft)
19.10.2012 22:00 10,0 C 89 % 1016,1 hPa 0,0 l/m N 0,00 h 0 W/m 0,4 km/h (0 Bft)
19.10.2012 23:00 8,8 C 90 % 1016,1 hPa 0,0 l/m N 0,00 h 0 W/m 0,1 km/h (0 Bft)
20.10.2012 00:00 7,9 C 91 % 1016,5 hPa 0,0 l/m N 0,00 h 0 W/m 0,0 km/h (0 Bft)
20.10.2012 01:00 7,1 C 91 % 1016,8 hPa 0,0 l/m N 0,00 h 0 W/m 0,0 km/h (0 Bft)
20.10.2012 02:00 6,5 C 92 % 1017,1 hPa 0,0 l/m N 0,00 h 0 W/m 0,1 km/h (0 Bft)
20.10.2012 03:00 5,8 C 93 % 1017,1 hPa 0,0 l/m N 0,00 h 0 W/m 0,0 km/h (0 Bft)
20.10.2012 04:00 5,2 C 93 % 1017,3 hPa 0,0 l/m N 0,00 h 0 W/m 0,0 km/h (0 Bft)
20.10.2012 05:00 4,6 C 93 % 1017,5 hPa 0,0 l/m N 0,00 h 0 W/m 0,0 km/h (0 Bft)
20.10.2012 06:00 4,3 C 94 % 1017,8 hPa 0,0 l/m N 0,00 h 0 W/m 0,0 km/h (0 Bft)
20.10.2012 07:00 4,3 C 95 % 1018,2 hPa 0,0 l/m N 0,00 h 5 W/m 0,0 km/h (0 Bft)
20.10.2012 08:00 4,1 C 95 % 1018,9 hPa 0,0 l/m N 0,00 h 28 W/m 0,0 km/h (0 Bft)
20.10.2012 09:00 5,8 C 97 % 1019,3 hPa 0,0 l/m N 0,75 h 158 W/m 0,4 km/h (0 Bft)
20.10.2012 10:00 10,1 C 95 % 1019,1 hPa 0,0 l/m N 1,00 h 312 W/m 1,5 km/h (1 Bft)
20.10.2012 11:00 14,2 C 73 % 1019,1 hPa 0,0 l/m N-NO 1,00 h 434 W/m 4,7 km/h (1 Bft)
20.10.2012 12:00 16,8 C 58 % 1018,9 hPa 0,0 l/m N-NO 1,00 h 507 W/m 4,8 km/h (1 Bft)
20.10.2012 13:00 19,1 C 54 % 1018,2 hPa 0,0 l/m N-NO 1,00 h 522 W/m 3,9 km/h (1 Bft)
20.10.2012 14:00 21,0 C 51 % 1017,8 hPa 0,0 l/m N-NO 1,00 h 479 W/m 8,9 km/h (2 Bft)
20.10.2012 15:00 21,3 C 51 % 1017,5 hPa 0,0 l/m O-NO 1,00 h 382 W/m 14,1 km/h (3 Bft)
20.10.2012 16:00 20,7 C 55 % 1017,2 hPa 0,0 l/m NO 1,00 h 246 W/m 13,4 km/h (3 Bft)
20.10.2012 17:00 19,8 C 56 % 1016,9 hPa 0,0 l/m NO 0,58 h 82 W/m 10,9 km/h (2 Bft)
20.10.2012 18:00 17,8 C 63 % 1017,0 hPa 0,0 l/m N-NO 0,00 h 7 W/m 4,9 km/h (1 Bft)
20.10.2012 19:00 15,1 C 71 % 1017,1 hPa 0,0 l/m N-NO 0,00 h 0 W/m 3,7 km/h (1 Bft)
20.10.2012 20:00 13,1 C 79 % 1016,8 hPa 0,0 l/m N-NO 0,00 h 0 W/m 3,1 km/h (1 Bft)
20.10.2012 21:00 11,8 C 84 % 1016,7 hPa 0,0 l/m N-NO 0,00 h 0 W/m 4,5 km/h (1 Bft)
20.10.2012 22:00 10,9 C 89 % 1016,8 hPa 0,0 l/m N-NO 0,00 h 0 W/m 4,3 km/h (1 Bft)
20.10.2012 23:00 10,1 C 89 % 1016,3 hPa 0,0 l/m N-NO 0,00 h 0 W/m 4,4 km/h (1 Bft)
21.10.2012 00:00 9,4 C 92 % 1015,8 hPa 0,0 l/m N-NO 0,00 h 0 W/m 4,0 km/h (1 Bft)
21.10.2012 01:00 8,8 C 93 % 1015,7 hPa 0,0 l/m N-NO 0,00 h 0 W/m 4,8 km/h (1 Bft)
21.10.2012 02:00 8,5 C 95 % 1015,8 hPa 0,0 l/m N-NO 0,00 h 0 W/m 5,7 km/h (1 Bft)
21.10.2012 03:00 8,2 C 96 % 1015,7 hPa 0,0 l/m N-NO 0,00 h 0 W/m 6,0 km/h (2 Bft)
21.10.2012 04:00 8,0 C 96 % 1015,8 hPa 0,2 l/m N 0,00 h 0 W/m 1,3 km/h (1 Bft)
21.10.2012 05:00 7,9 C 97 % 1015,9 hPa 0,0 l/m N 0,00 h 0 W/m 1,3 km/h (1 Bft)
21.10.2012 06:00 7,9 C 97 % 1015,9 hPa 0,0 l/m N 0,00 h 0 W/m 2,1 km/h (1 Bft)
21.10.2012 07:00 7,8 C 97 % 1016,0 hPa 0,0 l/m N 0,00 h 0 W/m 0,7 km/h (0 Bft)
21.10.2012 08:00 7,7 C 97 % 1016,6 hPa 0,0 l/m N 0,00 h 16 W/m 0,4 km/h (0 Bft)
21.10.2012 09:00 7,8 C 97 % 1016,8 hPa 0,0 l/m N 0,00 h 47 W/m 1,6 km/h (1 Bft)
21.10.2012 10:00 8,2 C 98 % 1017,1 hPa 0,0 l/m N 0,00 h 103 W/m 2,8 km/h (1 Bft)
21.10.2012 11:00 8,9 C 98 % 1017,1 hPa 0,0 l/m N-NO 0,08 h 159 W/m 2,7 km/h (1 Bft)
21.10.2012 12:00 10,7 C 97 % 1016,9 hPa 0,0 l/m N-NO 0,67 h 385 W/m 3,7 km/h (1 Bft)
21.10.2012 13:00 14,0 C 86 % 1016,4 hPa 0,0 l/m NO 1,00 h 492 W/m 4,7 km/h (1 Bft)
21.10.2012 14:00 16,5 C 77 % 1016,0 hPa 0,0 l/m NO 1,00 h 454 W/m 4,8 km/h (1 Bft)
21.10.2012 15:00 17,7 C 75 % 1015,8 hPa 0,0 l/m NO 1,00 h 365 W/m 7,1 km/h (2 Bft)
21.10.2012 16:00 17,7 C 76 % 1015,7 hPa 0,0 l/m N-NO 1,00 h 246 W/m 7,0 km/h (2 Bft)
21.10.2012 17:00 16,9 C 78 % 1015,7 hPa 0,0 l/m NO 0,58 h 73 W/m 8,4 km/h (2 Bft)
21.10.2012 18:00 14,6 C 83 % 1016,4 hPa 0,0 l/m NO 0,08 h 9 W/m 6,1 km/h (2 Bft)
21.10.2012 19:00 12,6 C 88 % 1017,0 hPa 0,0 l/m N-NO 0,00 h 0 W/m 7,1 km/h (2 Bft)
21.10.2012 20:00 11,1 C 91 % 1017,2 hPa 0,0 l/m N-NO 0,00 h 0 W/m 4,3 km/h (1 Bft)
21.10.2012 21:00 10,3 C 93 % 1017,5 hPa 0,0 l/m N-NO 0,00 h 0 W/m 5,5 km/h (1 Bft)
21.10.2012 22:00 9,9 C 95 % 1017,9 hPa 0,0 l/m N-NO 0,00 h 0 W/m 6,4 km/h (2 Bft)
21.10.2012 23:00 9,7 C 96 % 1017,9 hPa 0,0 l/m N-NO 0,00 h 0 W/m 6,7 km/h (2 Bft)
Min-Datum _ 16.10.12 20.10.12 15.10.12 - - - - 15.10.12
_ Min-Zeit 06:30 14:40 00:50 - - - - 00:10
Minimum _ 2,7 C 48 % 997,8 hPa - - - - 0,0 km/h (0 Bft)
Max-Datum _ 20.10.12 16.10.12 20.10.12 15.10.12 - 16.10.12 18.10.12 15.10.12
_ Max-Zeit 14:45 10:30 09:20 04:00 - 10:40 12:45 07:30
Maximum _ 21,6 C 99 % 1019,5 hPa 1,2 l/m - 0,08 h 647 W/m 30,6 km/h
W-SW (5 Bft)
Durchschnitt _ 9,9 C 86 % 1013,3 hPa #7,0 l/m W-SW #37:10 h 212 W/m 5,3 km/h (1 Bft)